Observation data for Lamesa on 12/09/2018      Previous  Date  Next       Current Mesonet Observations  Soil Data  Daily Summary Page  Observations in Plain Language
KLES 090600Z 31003KT M01/M02 A3031 RMK A01 T10101016  RH  096%=      5-min Rain = 0
KLES 090605Z 31003KT M01/M02 A3031 RMK A01 T10101016  RH  096%=      5-min Rain = 0
KLES 090610Z 30003KT M01/M02 A3031 RMK A01 T10101016  RH  096%=      5-min Rain = 0
KLES 090615Z 31003KT M01/M02 A3031 RMK A01 T10101016  RH  097%=      5-min Rain = 0
KLES 090620Z 32002KT M01/M02 A3031 RMK A01 T10101017  RH  096%=      5-min Rain = 0
KLES 090625Z 33003KT M01/M02 A3031 RMK A01 T10131019  RH  096%=      5-min Rain = 0
KLES 090630Z 33003KT M01/M02 A3031 RMK A01 T10141021  RH  096%=      5-min Rain = 0
KLES 090635Z 33003KT M02/M02 A3031 RMK A01 T10151020  RH  097%=      5-min Rain = 0
KLES 090640Z 33003KT M01/M02 A3031 RMK A01 T10131019  RH  097%=      5-min Rain = 0
KLES 090645Z 34003KT M01/M02 A3031 RMK A01 T10131018  RH  097%=      5-min Rain = 0
KLES 090650Z 34003KT M01/M02 A3031 RMK A01 T10141020  RH  097%=      5-min Rain = 0
KLES 090655Z 34004KT M02/M02 A303 RMK A01 T10151020  RH  097%=      5-min Rain = 0
KLES 090700Z 34004KT M02/M02 A303 RMK A01 T10151021  RH  097%=      5-min Rain = 0
KLES 090705Z 34003KT M02/M02 A303 RMK A01 T10151021  RH  097%=      5-min Rain = 0
KLES 090710Z 34003KT M01/M02 A303 RMK A01 T10141020  RH  097%=      5-min Rain = 0
KLES 090715Z 01003KT M01/M02 A3029 RMK A01 T10141019  RH  097%=      5-min Rain = 0
KLES 090720Z 35003KT M01/M02 A3029 RMK A01 T10141019  RH  097%=      5-min Rain = 0
KLES 090725Z 35002KT M01/M02 A3029 RMK A01 T10141019  RH  097%=      5-min Rain = 0
KLES 090730Z 36003KT M01/M02 A3029 RMK A01 T10141019  RH  097%=      5-min Rain = 0
KLES 090735Z 01002KT M01/M02 A3029 RMK A01 T10141019  RH  097%=      5-min Rain = 0
KLES 090740Z 32002KT M02/M02 A3029 RMK A01 T10151020  RH  097%=      5-min Rain = 0
KLES 090745Z 33003KT M01/M02 A3029 RMK A01 T10131018  RH  097%=      5-min Rain = 0
KLES 090750Z 35003KT M01/M02 A3029 RMK A01 T10131019  RH  097%=      5-min Rain = 0
KLES 090755Z 36002KT M01/M02 A3029 RMK A01 T10141019  RH  097%=      5-min Rain = 0
KLES 090800Z 35002KT M02/M02 A3029 RMK A01 T10151020  RH  097%=      5-min Rain = 0
KLES 090805Z 00003KT M01/M02 A3029 RMK A01 T10141019  RH  097%=      5-min Rain = 0
KLES 090810Z 02004KT M01/M02 A3029 RMK A01 T10131018  RH  097%=      5-min Rain = 0
KLES 090815Z 01004KT M01/M02 A3029 RMK A01 T10131018  RH  097%=      5-min Rain = 0
KLES 090820Z 02004KT M01/M02 A3029 RMK A01 T10131018  RH  097%=      5-min Rain = 0
KLES 090825Z 02005KT M01/M02 A3028 RMK A01 T10131018  RH  097%=      5-min Rain = 0
KLES 090830Z 02004KT M01/M02 A3028 RMK A01 T10121017  RH  097%=      5-min Rain = 0
KLES 090835Z 02005KT M01/M02 A3028 RMK A01 T10111016  RH  097%=      5-min Rain = 0
KLES 090840Z 01004KT M01/M02 A3028 RMK A01 T10111016  RH  097%=      5-min Rain = 0
KLES 090845Z 01004KT M01/M02 A3028 RMK A01 T10111016  RH  097%=      5-min Rain = 0
KLES 090850Z 02005KT M01/M02 A3028 RMK A01 T10111016  RH  097%=      5-min Rain = 0
KLES 090855Z 02005KT M01/M02 A3028 RMK A01 T10101015  RH  097%=      5-min Rain = 0
KLES 090900Z 02006KT M01/M02 A3028 RMK A01 T10091015  RH  097%=      5-min Rain = 0
KLES 090905Z 01004KT M01/M02 A3028 RMK A01 T10091015  RH  096%=      5-min Rain = 0
KLES 090910Z 01004KT M01/M02 A3028 RMK A01 T10091015  RH  096%=      5-min Rain = 0
KLES 090915Z 01004KT M01/M02 A3028 RMK A01 T10091016  RH  096%=      5-min Rain = 0
KLES 090920Z 01004KT M01/M02 A3029 RMK A01 T10101016  RH  096%=      5-min Rain = 0
KLES 090925Z 01004KT M01/M02 A3028 RMK A01 T10101017  RH  096%=      5-min Rain = 0
KLES 090930Z 00003KT M01/M02 A3029 RMK A01 T10111018  RH  096%=      5-min Rain = 0
KLES 090935Z 35003KT M01/M02 A3029 RMK A01 T10111018  RH  096%=      5-min Rain = 0
KLES 090940Z 34003KT M01/M02 A3029 RMK A01 T10111018  RH  096%=      5-min Rain = 0
KLES 090945Z 33003KT M01/M02 A3029 RMK A01 T10111018  RH  096%=      5-min Rain = 0
KLES 090950Z 33003KT M01/M02 A3029 RMK A01 T10111018  RH  096%=      5-min Rain = 0
KLES 090955Z 32002KT M01/M02 A3029 RMK A01 T10121018  RH  096%=      5-min Rain = 0
KLES 091000Z 31002KT M01/M02 A3029 RMK A01 T10121019  RH  096%=      5-min Rain = 0
KLES 091005Z 31002KT M01/M02 A3029 RMK A01 T10131021  RH  096%=      5-min Rain = 0
KLES 091010Z 31004KT M02/M02 A3029 RMK A01 T10151022  RH  095%=      5-min Rain = 0
KLES 091015Z 31003KT M02/M02 A3029 RMK A01 T10161024  RH  096%=      5-min Rain = 0
KLES 091020Z 32003KT M02/M03 A3029 RMK A01 T10181025  RH  096%=      5-min Rain = 0
KLES 091025Z 33002KT M02/M03 A3029 RMK A01 T10201027  RH  096%=      5-min Rain = 0
KLES 091030Z 32003KT M02/M03 A3029 RMK A01 T10201027  RH  096%=      5-min Rain = 0
KLES 091035Z 31005KT M02/M03 A3029 RMK A01 T10191025  RH  096%=      5-min Rain = 0
KLES 091040Z 30006KT M02/M02 A3029 RMK A01 T10171023  RH  096%=      5-min Rain = 0
KLES 091045Z 31005KT M02/M02 A3029 RMK A01 T10161022  RH  096%=      5-min Rain = 0
KLES 091050Z 32004KT M02/M02 A3029 RMK A01 T10171024  RH  096%=      5-min Rain = 0
KLES 091055Z 33003KT M02/M02 A3029 RMK A01 T10181024  RH  096%=      5-min Rain = 0
KLES 091100Z 31003KT M02/M03 A3029 RMK A01 T10191026  RH  096%=      5-min Rain = 0
KLES 091105Z 31003KT M02/M03 A3029 RMK A01 T10191025  RH  096%=      5-min Rain = 0
KLES 091110Z 30004KT M02/M02 A303 RMK A01 T10181024  RH  096%=      5-min Rain = 0
KLES 091115Z 31005KT M02/M02 A303 RMK A01 T10171024  RH  096%=      5-min Rain = 0
KLES 091120Z 32003KT M02/M03 A303 RMK A01 T10181025  RH  096%=      5-min Rain = 0
KLES 091125Z 31003KT M02/M03 A303 RMK A01 T10191026  RH  096%=      5-min Rain = 0
KLES 091130Z 32003KT M02/M03 A303 RMK A01 T10201026  RH  096%=      5-min Rain = 0
KLES 091135Z 32004KT M02/M03 A3031 RMK A01 T10201026  RH  096%=      5-min Rain = 0
KLES 091140Z 31004KT M02/M03 A3031 RMK A01 T10201026  RH  096%=      5-min Rain = 0
KLES 091145Z 32004KT M02/M03 A3031 RMK A01 T10211027  RH  096%=      5-min Rain = 0
KLES 091150Z 33004KT M02/M03 A3032 RMK A01 T10221029  RH  096%=      5-min Rain = 0
KLES 091155Z 34004KT M02/M03 A3032 RMK A01 T10241030  RH  096%=      5-min Rain = 0
KLES 091200Z 33004KT M02/M03 A3032 RMK A01 T10241030  RH  096%=      5-min Rain = 0
KLES 091205Z 32004KT M02/M03 A3032 RMK A01 T10231028  RH  096%=      5-min Rain = 0
KLES 091210Z 32004KT M02/M03 A3032 RMK A01 T10231029  RH  096%=      5-min Rain = 0
KLES 091215Z 32004KT M02/M03 A3032 RMK A01 T10231030  RH  096%=      5-min Rain = 0
KLES 091220Z 32003KT M02/M03 A3033 RMK A01 T10241030  RH  096%=      5-min Rain = 0
KLES 091225Z 32004KT M02/M03 A3033 RMK A01 T10241030  RH  096%=      5-min Rain = 0
KLES 091230Z 33003KT M02/M03 A3033 RMK A01 T10241030  RH  096%=      5-min Rain = 0
KLES 091235Z 33003KT M02/M03 A3033 RMK A01 T10241030  RH  096%=      5-min Rain = 0
KLES 091240Z 34003KT M03/M03 A3033 RMK A01 T10251031  RH  096%=      5-min Rain = 0
KLES 091245Z 34003KT M03/M03 A3033 RMK A01 T10251031  RH  096%=      5-min Rain = 0
KLES 091250Z 34003KT M03/M03 A3034 RMK A01 T10251031  RH  096%=      5-min Rain = 0
KLES 091255Z 35002KT M03/M03 A3034 RMK A01 T10251031  RH  096%=      5-min Rain = 0
KLES 091300Z 35003KT M02/M03 A3034 RMK A01 T10241030  RH  096%=      5-min Rain = 0
KLES 091305Z 35004KT M02/M03 A3034 RMK A01 T10231029  RH  097%=      5-min Rain = 0
KLES 091310Z 35004KT M02/M03 A3034 RMK A01 T10221028  RH  096%=      5-min Rain = 0
KLES 091315Z 36004KT M02/M03 A3034 RMK A01 T10221028  RH  096%=      5-min Rain = 0
KLES 091320Z 36005KT M02/M03 A3034 RMK A01 T10221028  RH  096%=      5-min Rain = 0
KLES 091325Z 36006KT M02/M03 A3035 RMK A01 T10221028  RH  096%=      5-min Rain = 0
KLES 091330Z 36005KT M02/M03 A3035 RMK A01 T10221028  RH  096%=      5-min Rain = 0
KLES 091335Z 00005KT M02/M03 A3035 RMK A01 T10221028  RH  096%=      5-min Rain = 0
KLES 091340Z 36006KT M02/M03 A3035 RMK A01 T10221029  RH  096%=      5-min Rain = 0
KLES 091345Z 00005KT M02/M03 A3035 RMK A01 T10221029  RH  096%=      5-min Rain = 0
KLES 091350Z 00005KT M02/M03 A3035 RMK A01 T10211028  RH  096%=      5-min Rain = 0
KLES 091355Z 00005KT M02/M03 A3035 RMK A01 T10211028  RH  096%=      5-min Rain = 0
KLES 091400Z 36004KT M02/M03 A3035 RMK A01 T10211027  RH  096%=      5-min Rain = 0
KLES 091405Z 00004KT M02/M03 A3035 RMK A01 T10201027  RH  096%=      5-min Rain = 0
KLES 091410Z 00004KT M02/M03 A3035 RMK A01 T10191026  RH  095%=      5-min Rain = 0
KLES 091415Z 36004KT M02/M03 A3036 RMK A01 T10181025  RH  095%=      5-min Rain = 0
KLES 091420Z 35004KT M02/M02 A3036 RMK A01 T10161024  RH  095%=      5-min Rain = 0
KLES 091425Z 35004KT M02/M02 A3036 RMK A01 T10151023  RH  095%=      5-min Rain = 0
KLES 091430Z 34003KT M01/M02 A3037 RMK A01 T10141022  RH  095%=      5-min Rain = 0
KLES 091435Z 33004KT M01/M02 A3037 RMK A01 T10131021  RH  095%=      5-min Rain = 0
KLES 091440Z 34005KT M01/M02 A3037 RMK A01 T10111019  RH  095%=      5-min Rain = 0
KLES 091445Z 34004KT M01/M02 A3038 RMK A01 T10101019  RH  095%=      5-min Rain = 0
KLES 091450Z 34005KT M01/M02 A3038 RMK A01 T10101019  RH  095%=      5-min Rain = 0
KLES 091455Z 35004KT M01/M02 A3038 RMK A01 T10091018  RH  094%=      5-min Rain = 0
KLES 091500Z 35005KT M01/M02 A3038 RMK A01 T10081018  RH  094%=      5-min Rain = 0
KLES 091505Z 35004KT M01/M02 A3038 RMK A01 T10061015  RH  094%=      5-min Rain = 0
KLES 091510Z 35005KT M01/M02 A3038 RMK A01 T10061016  RH  094%=      5-min Rain = 0
KLES 091515Z 34004KT M00/M01 A3039 RMK A01 T10041014  RH  094%=      5-min Rain = 0
KLES 091520Z 34004KT M00/M01 A3039 RMK A01 T10021013  RH  093%=      5-min Rain = 0
KLES 091525Z 34005KT M00/M01 A3039 RMK A01 T10011012  RH  093%=      5-min Rain = 0
KLES 091530Z 35004KT 00/M01 A3039 RMK A01 T00011011  RH  093%=      5-min Rain = 0
KLES 091535Z 34004KT 00/M01 A3039 RMK A01 T00021011  RH  092%=      5-min Rain = 0
KLES 091540Z 34004KT 00/M01 A304 RMK A01 T00031010  RH  092%=      5-min Rain = 0
KLES 091545Z 34003KT 01/M01 A304 RMK A01 T00051008  RH  092%=      5-min Rain = 0
KLES 091550Z 32003KT 01/M01 A304 RMK A01 T00051008  RH  091%=      5-min Rain = 0
KLES 091555Z 31004KT 01/M01 A304 RMK A01 T00061009  RH  091%=      5-min Rain = 0
KLES 091600Z 31004KT 01/M01 A3041 RMK A01 T00071008  RH  090%=      5-min Rain = 0
KLES 091605Z 33003KT 01/M01 A3041 RMK A01 T00111005  RH  090%=      5-min Rain = 0
KLES 091610Z 31003KT 01/M01 A3041 RMK A01 T00121005  RH  089%=      5-min Rain = 0
KLES 091615Z 33003KT 02/M00 A3041 RMK A01 T00161002  RH  089%=      5-min Rain = 0
KLES 091620Z 35003KT 02/00 A3041 RMK A01 T00210002  RH  089%=      5-min Rain = 0
KLES 091625Z 00002KT 02/00 A3041 RMK A01 T00240003  RH  087%=      5-min Rain = 0
KLES 091630Z 00002KT 03/00 A3041 RMK A01 T00250004  RH  087%=      5-min Rain = 0
KLES 091635Z 36003KT 03/00 A3041 RMK A01 T00270002  RH  085%=      5-min Rain = 0
KLES 091640Z 35003KT 03/00 A3041 RMK A01 T00280001  RH  084%=      5-min Rain = 0
KLES 091645Z 35002KT 03/00 A3041 RMK A01 T00310004  RH  083%=      5-min Rain = 0
KLES 091650Z 01003KT 03/M00 A3041 RMK A01 T00301001  RH  081%=      5-min Rain = 0
KLES 091655Z 33004KT 03/00 A3041 RMK A01 T00320001  RH  081%=      5-min Rain = 0
KLES 091700Z 35002KT 03/00 A3041 RMK A01 T00320001  RH  081%=      5-min Rain = 0
KLES 091705Z 01003KT 04/00 A3041 RMK A01 T00350004  RH  081%=      5-min Rain = 0
KLES 091710Z 01005KT 03/M01 A3041 RMK A01 T00341005  RH  076%=      5-min Rain = 0
KLES 091715Z 02005KT 04/M01 A3041 RMK A01 T00351005  RH  076%=      5-min Rain = 0
KLES 091720Z 36005KT 04/M01 A304 RMK A01 T00351005  RH  076%=      5-min Rain = 0
KLES 091725Z 36005KT 04/M00 A304 RMK A01 T00371001  RH  077%=      5-min Rain = 0
KLES 091730Z 00004KT 04/M00 A304 RMK A01 T00371003  RH  076%=      5-min Rain = 0
KLES 091735Z 01005KT 04/M00 A304 RMK A01 T00381002  RH  076%=      5-min Rain = 0
KLES 091740Z 00005KT 04/M00 A304 RMK A01 T00401004  RH  074%=      5-min Rain = 0
KLES 091745Z 01004KT 04/M00 A304 RMK A01 T00421001  RH  074%=      5-min Rain = 0
KLES 091750Z 35004KT 05/00 A304 RMK A01 T00450003  RH  075%=      5-min Rain = 0
KLES 091755Z 36005KT 05/01 A3039 RMK A01 T00450006  RH  076%=      5-min Rain = 0
KLES 091800Z 35005KT 05/01 A3039 RMK A01 T00450005  RH  077%=      5-min Rain = 0
KLES 091805Z 01004KT 04/00 A3039 RMK A01 T00440003  RH  076%=      5-min Rain = 0
KLES 091810Z 34004KT 05/01 A3039 RMK A01 T00470006  RH  076%=      5-min Rain = 0
KLES 091815Z 35004KT 05/00 A3039 RMK A01 T00480004  RH  074%=      5-min Rain = 0
KLES 091820Z 01004KT 05/01 A3038 RMK A01 T00490006  RH  075%=      5-min Rain = 0
KLES 091825Z 36004KT 05/01 A3038 RMK A01 T00510007  RH  074%=      5-min Rain = 0
KLES 091830Z 36004KT 05/01 A3038 RMK A01 T00530009  RH  074%=      5-min Rain = 0
KLES 091835Z 33004KT 06/01 A3038 RMK A01 T00550007  RH  072%=      5-min Rain = 0
KLES 091840Z 32003KT 05/00 A3037 RMK A01 T00530003  RH  071%=      5-min Rain = 0
KLES 091845Z 01002KT 06/01 A3037 RMK A01 T00560006  RH  071%=      5-min Rain = 0
KLES 091850Z 00004KT 06/01 A3037 RMK A01 T00600009  RH  071%=      5-min Rain = 0
KLES 091855Z 35003KT 06/01 A3037 RMK A01 T00600007  RH  069%=      5-min Rain = 0
KLES 091900Z 34002KT 06/01 A3037 RMK A01 T00620007  RH  069%=      5-min Rain = 0
KLES 091905Z 32004KT 06/01 A3036 RMK A01 T00630006  RH  068%=      5-min Rain = 0
KLES 091910Z 00004KT 06/00 A3036 RMK A01 T00600004  RH  068%=      5-min Rain = 0
KLES 091915Z 30003KT 06/00 A3036 RMK A01 T00600003  RH  068%=      5-min Rain = 0
KLES 091920Z 33004KT 06/01 A3036 RMK A01 T00630007  RH  068%=      5-min Rain = 0
KLES 091925Z 31004KT 06/01 A3036 RMK A01 T00630005  RH  067%=      5-min Rain = 0
KLES 091930Z 02003KT 06/01 A3035 RMK A01 T00630005  RH  067%=      5-min Rain = 0
KLES 091935Z 02003KT 06/01 A3035 RMK A01 T00630007  RH  068%=      5-min Rain = 0
KLES 091940Z 32005KT 06/01 A3035 RMK A01 T00640006  RH  067%=      5-min Rain = 0
KLES 091945Z 34004KT 07/00 A3035 RMK A01 T00650001  RH  064%=      5-min Rain = 0
KLES 091950Z 00002KT 07/00 A3035 RMK A01 T00670002  RH  064%=      5-min Rain = 0
KLES 091955Z 01004KT 07/01 A3034 RMK A01 T00710008  RH  065%=      5-min Rain = 0
KLES 092000Z 03003KT 07/00 A3034 RMK A01 T006600-0  RH  063%=      5-min Rain = 0
KLES 092005Z 35004KT 07/01 A3034 RMK A01 T00680007  RH  066%=      5-min Rain = 0
KLES 092010Z 01005KT 07/01 A3034 RMK A01 T00690005  RH  064%=      5-min Rain = 0
KLES 092015Z 00004KT 07/01 A3034 RMK A01 T00680005  RH  065%=      5-min Rain = 0
KLES 092020Z 31003KT 07/01 A3034 RMK A01 T00700006  RH  065%=      5-min Rain = 0
KLES 092025Z 02003KT 07/01 A3034 RMK A01 T00710006  RH  064%=      5-min Rain = 0
KLES 092030Z 01003KT 07/01 A3034 RMK A01 T00690005  RH  065%=      5-min Rain = 0
KLES 092035Z 30003KT 07/01 A3034 RMK A01 T00720006  RH  064%=      5-min Rain = 0
KLES 092040Z 28003KT 07/00 A3034 RMK A01 T00700002  RH  063%=      5-min Rain = 0
KLES 092045Z 27004KT 07/01 A3034 RMK A01 T00710005  RH  063%=      5-min Rain = 0
KLES 092050Z 28003KT 07/00 A3034 RMK A01 T00700002  RH  063%=      5-min Rain = 0
KLES 092055Z 01003KT 07/01 A3034 RMK A01 T00730005  RH  063%=      5-min Rain = 0
KLES 092100Z 01004KT 07/00 A3034 RMK A01 T00720004  RH  063%=      5-min Rain = 0
KLES 092105Z 31003KT 07/01 A3034 RMK A01 T00730007  RH  064%=      5-min Rain = 0
KLES 092110Z 35003KT 08/01 A3034 RMK A01 T00760009  RH  063%=      5-min Rain = 0
KLES 092115Z 33005KT 08/01 A3034 RMK A01 T00780007  RH  061%=      5-min Rain = 0
KLES 092120Z 33005KT 08/00 A3034 RMK A01 T00770003  RH  060%=      5-min Rain = 0
KLES 092125Z 33004KT 08/01 A3034 RMK A01 T00790007  RH  061%=      5-min Rain = 0
KLES 092130Z 30004KT 08/00 A3034 RMK A01 T00760003  RH  061%=      5-min Rain = 0
KLES 092135Z 35002KT 08/00 A3033 RMK A01 T00760004  RH  061%=      5-min Rain = 0
KLES 092140Z 34004KT 08/01 A3033 RMK A01 T00770005  RH  061%=      5-min Rain = 0
KLES 092145Z 33002KT 08/00 A3033 RMK A01 T00770002  RH  060%=      5-min Rain = 0
KLES 092150Z 35005KT 08/00 A3033 RMK A01 T00790004  RH  060%=      5-min Rain = 0
KLES 092155Z 00003KT 08/00 A3033 RMK A01 T00770004  RH  061%=      5-min Rain = 0
KLES 092200Z 33005KT 08/00 A3033 RMK A01 T00790003  RH  060%=      5-min Rain = 0
KLES 092205Z 35005KT 08/00 A3034 RMK A01 T00790001  RH  059%=      5-min Rain = 0
KLES 092210Z 34006KT 08/00 A3034 RMK A01 T00780004  RH  060%=      5-min Rain = 0
KLES 092215Z 33005KT 08/01 A3034 RMK A01 T00790005  RH  060%=      5-min Rain = 0
KLES 092220Z 31004KT 08/00 A3034 RMK A01 T00780004  RH  060%=      5-min Rain = 0
KLES 092225Z 35005G10KT 08/00 A3034 RMK A01 T00750003  RH  061%=      5-min Rain = 0
KLES 092230Z 35006KT 07/00 A3034 RMK A01 T00740004  RH  062%=      5-min Rain = 0
KLES 092235Z 00004KT 07/00 A3034 RMK A01 T00730004  RH  062%=      5-min Rain = 0
KLES 092240Z 33006KT 07/01 A3034 RMK A01 T00740007  RH  063%=      5-min Rain = 0
KLES 092245Z 33005KT 08/01 A3034 RMK A01 T00750005  RH  062%=      5-min Rain = 0
KLES 092250Z 35004KT 08/00 A3034 RMK A01 T00760004  RH  061%=      5-min Rain = 0
KLES 092255Z 33005KT 07/00 A3034 RMK A01 T00740002  RH  061%=      5-min Rain = 0
KLES 092300Z 36005KT 07/00 A3034 RMK A01 T00720001  RH  061%=      5-min Rain = 0
KLES 092305Z 34006KT 07/M00 A3034 RMK A01 T00701001  RH  062%=      5-min Rain = 0
KLES 092310Z 34005KT 07/M00 A3034 RMK A01 T00681002  RH  062%=      5-min Rain = 0
KLES 092315Z 33005KT 07/M00 A3034 RMK A01 T00671002  RH  062%=      5-min Rain = 0
KLES 092320Z 34005KT 07/M00 A3034 RMK A01 T00661002  RH  062%=      5-min Rain = 0
KLES 092325Z 34005KT 07/M00 A3035 RMK A01 T00651001  RH  063%=      5-min Rain = 0
KLES 092330Z 34005KT 06/M00 A3035 RMK A01 T00621001  RH  064%=      5-min Rain = 0
KLES 092335Z 34005KT 06/M00 A3035 RMK A01 T00601002  RH  065%=      5-min Rain = 0
KLES 092340Z 34005KT 06/M00 A3035 RMK A01 T00571003  RH  066%=      5-min Rain = 0
KLES 092345Z 34006KT 06/M00 A3035 RMK A01 T00551003  RH  067%=      5-min Rain = 0
KLES 092350Z 35005KT 05/M00 A3035 RMK A01 T00531004  RH  067%=      5-min Rain = 0
KLES 092355Z 34004KT 05/M01 A3035 RMK A01 T00511005  RH  068%=      5-min Rain = 0
KLES 100000Z 34005KT 05/M01 A3035 RMK A01 T00481005  RH  069%=      5-min Rain = 0
KLES 100005Z 35004KT 05/M01 A3035 RMK A01 T00471006  RH  070%=      5-min Rain = 0
KLES 100010Z 35005KT 05/M01 A3035 RMK A01 T00451005  RH  071%=      5-min Rain = 0
KLES 100015Z 35005KT 04/M00 A3035 RMK A01 T00441004  RH  072%=      5-min Rain = 0
KLES 100020Z 01005KT 04/M00 A3035 RMK A01 T00431004  RH  073%=      5-min Rain = 0
KLES 100025Z 01006KT 04/00 A3036 RMK A01 T003800-0  RH  077%=      5-min Rain = 0
KLES 100030Z 01004KT 04/00 A3035 RMK A01 T00350000  RH  079%=      5-min Rain = 0
KLES 100035Z 01004KT 03/00 A3036 RMK A01 T00330000  RH  080%=      5-min Rain = 0
KLES 100040Z 01005KT 03/M00 A3036 RMK A01 T00301001  RH  081%=      5-min Rain = 0
KLES 100045Z 01005KT 03/00 A3036 RMK A01 T002900-0  RH  082%=      5-min Rain = 0
KLES 100050Z 02005KT 03/00 A3036 RMK A01 T00280001  RH  083%=      5-min Rain = 0
KLES 100055Z 02006KT 03/00 A3036 RMK A01 T00280001  RH  083%=      5-min Rain = 0
KLES 100100Z 02005KT 03/M00 A3036 RMK A01 T00261001  RH  083%=      5-min Rain = 0
KLES 100105Z 02005KT 03/M00 A3036 RMK A01 T00251002  RH  083%=      5-min Rain = 0
KLES 100110Z 02005KT 02/M00 A3036 RMK A01 T00231004  RH  083%=      5-min Rain = 0
KLES 100115Z 02004KT 02/M01 A3036 RMK A01 T00211005  RH  083%=      5-min Rain = 0
KLES 100120Z 02004KT 02/M01 A3037 RMK A01 T00191006  RH  084%=      5-min Rain = 0
KLES 100125Z 02005KT 02/M01 A3037 RMK A01 T00171007  RH  085%=      5-min Rain = 0
KLES 100130Z 02004KT 02/M01 A3037 RMK A01 T00171007  RH  085%=      5-min Rain = 0
KLES 100135Z 02004KT 02/M01 A3037 RMK A01 T00151008  RH  085%=      5-min Rain = 0
KLES 100140Z 02004KT 01/M01 A3037 RMK A01 T00141008  RH  086%=      5-min Rain = 0
KLES 100145Z 02004KT 01/M01 A3037 RMK A01 T00131009  RH  086%=      5-min Rain = 0
KLES 100150Z 02003KT 01/M01 A3037 RMK A01 T00121010  RH  086%=      5-min Rain = 0
KLES 100155Z 01003KT 01/M01 A3037 RMK A01 T00121010  RH  086%=      5-min Rain = 0
KLES 100200Z 00002KT 01/M01 A3037 RMK A01 T00111011  RH  086%=      5-min Rain = 0
KLES 100205Z 00002KT 01/M01 A3037 RMK A01 T00111010  RH  087%=      5-min Rain = 0
KLES 100210Z 01002KT 01/M01 A3037 RMK A01 T00121010  RH  086%=      5-min Rain = 0
KLES 100215Z 00002KT 01/M01 A3037 RMK A01 T00111012  RH  086%=      5-min Rain = 0
KLES 100220Z 35001KT 01/M01 A3037 RMK A01 T00081014  RH  086%=      5-min Rain = 0
KLES 100225Z 35000KT 01/M02 A3037 RMK A01 T00061016  RH  086%=      5-min Rain = 0
KLES 100230Z 02001KT 00/M02 A3037 RMK A01 T00041017  RH  087%=      5-min Rain = 0
KLES 100235Z 02002KT 01/M01 A3038 RMK A01 T00061014  RH  087%=      5-min Rain = 0
KLES 100240Z 01002KT 01/M02 A3038 RMK A01 T00051015  RH  087%=      5-min Rain = 0
KLES 100245Z 00003KT 01/M02 A3038 RMK A01 T00051015  RH  087%=      5-min Rain = 0
KLES 100250Z 00003KT 00/M02 A3038 RMK A01 T00041016  RH  088%=      5-min Rain = 0
KLES 100255Z 36003KT 00/M02 A3038 RMK A01 T00041015  RH  088%=      5-min Rain = 0
KLES 100300Z 00003KT 00/M01 A3038 RMK A01 T00041014  RH  088%=      5-min Rain = 0
KLES 100305Z 00002KT 00/M02 A3038 RMK A01 T00031015  RH  088%=      5-min Rain = 0
KLES 100310Z 01003KT 00/M01 A3038 RMK A01 T00031014  RH  089%=      5-min Rain = 0
KLES 100315Z 00002KT 00/M01 A3038 RMK A01 T00041013  RH  089%=      5-min Rain = 0
KLES 100320Z 00003KT 00/M01 A3038 RMK A01 T00031014  RH  089%=      5-min Rain = 0
KLES 100325Z 00002KT 00/M02 A3038 RMK A01 T00021015  RH  089%=      5-min Rain = 0
KLES 100330Z 00003KT 00/M02 A3039 RMK A01 T00021015  RH  089%=      5-min Rain = 0
KLES 100335Z 00002KT 00/M02 A3039 RMK A01 T00021015  RH  089%=      5-min Rain = 0
KLES 100340Z 00003KT 00/M02 A3039 RMK A01 T00021015  RH  089%=      5-min Rain = 0
KLES 100345Z 35002KT 00/M02 A3039 RMK A01 T00011016  RH  089%=      5-min Rain = 0
KLES 100350Z 35002KT 00/02 A3039 RMK A01 T00000-16  RH  089%=      5-min Rain = 0
KLES 100355Z 36001KT 00/M02 A3039 RMK A01 T00011015  RH  090%=      5-min Rain = 0
KLES 100400Z 00002KT 00/M01 A3039 RMK A01 T00021014  RH  089%=      5-min Rain = 0
KLES 100405Z 00002KT 00/M02 A3039 RMK A01 T00021015  RH  089%=      5-min Rain = 0
KLES 100410Z 35002KT 00/M02 A3039 RMK A01 T00011015  RH  089%=      5-min Rain = 0
KLES 100415Z 00003KT 00/M02 A3039 RMK A01 T00011016  RH  089%=      5-min Rain = 0
KLES 100420Z 35003KT M00/M02 A3039 RMK A01 T10011017  RH  089%=      5-min Rain = 0
KLES 100425Z 35003KT M00/M02 A3039 RMK A01 T10011017  RH  090%=      5-min Rain = 0
KLES 100430Z 34004KT M00/M02 A3039 RMK A01 T10011017  RH  090%=      5-min Rain = 0
KLES 100435Z 34004KT M00/M02 A3039 RMK A01 T10031019  RH  090%=      5-min Rain = 0
KLES 100440Z 33004KT M00/M02 A3039 RMK A01 T10021017  RH  091%=      5-min Rain = 0
KLES 100445Z 32003KT 00/02 A304 RMK A01 T00000-15  RH  090%=      5-min Rain = 0
KLES 100450Z 31003KT 00/M02 A304 RMK A01 T00011016  RH  089%=      5-min Rain = 0
KLES 100455Z 29004KT 00/M02 A3039 RMK A01 T00011015  RH  090%=      5-min Rain = 0
KLES 100500Z 30004KT 00/M01 A3039 RMK A01 T00021014  RH  090%=      5-min Rain = 0
KLES 100505Z 30005KT 00/M01 A3039 RMK A01 T00041014  RH  089%=      5-min Rain = 0
KLES 100510Z 30005KT 00/M02 A3039 RMK A01 T00031015  RH  089%=      5-min Rain = 0
KLES 100515Z 30005KT 00/M01 A3039 RMK A01 T00021014  RH  090%=      5-min Rain = 0
KLES 100520Z 30005KT 00/M02 A3039 RMK A01 T00021015  RH  090%=      5-min Rain = 0
KLES 100525Z 30005KT 00/02 A3039 RMK A01 T00000-16  RH  090%=      5-min Rain = 0
KLES 100530Z 30005KT M00/M02 A3039 RMK A01 T10011016  RH  091%=      5-min Rain = 0
KLES 100535Z 30005KT M00/M02 A3039 RMK A01 T10021017  RH  091%=      5-min Rain = 0
KLES 100540Z 30006KT M00/M02 A3039 RMK A01 T10031017  RH  091%=      5-min Rain = 0
KLES 100545Z 30006KT M00/M02 A3039 RMK A01 T10031017  RH  091%=      5-min Rain = 0
KLES 100550Z 28005KT M00/M02 A3039 RMK A01 T10031017  RH  091%=      5-min Rain = 0
KLES 100555Z 29005KT M00/M02 A3039 RMK A01 T10031016  RH  091%=      5-min Rain = 0

Page generated in 0.0419 seconds.